ACG01 YBUN-YPJT
Flight info
| Callsign | ACG01 |
|---|---|
| Flight time | 0h 32m |
| Altitude | 3000 |
| Route | BOAT DCT ADWD |
| Aircraft | K100/L-SBDGRY/S |
Departure
| Time | 2026-04-23 01:39 |
|---|---|
| Airport | Bunbury Airport (YBUN) |
Arrival
| Time | 2026-04-23 02:12 |
|---|---|
| Airport | Perth Jandakot Airport (YPJT) |
| Time | Latitude | Longitude | Altitude | Speed | Heading |
|---|---|---|---|---|---|
| 2026-04-23 01:32 | -33.37537 | 115.68284 | 59 ft | 0 kts | 253° |
| 2026-04-23 01:33 | -33.37537 | 115.68283 | 59 ft | 0 kts | 253° |
| 2026-04-23 01:37 | -33.37537 | 115.68284 | 59 ft | 0 kts | 253° |
| 2026-04-23 01:37 | -33.37538 | 115.68279 | 59 ft | 2 kts | 260° |
| 2026-04-23 01:38 | -33.37535 | 115.68295 | 59 ft | 7 kts | 262° |
| 2026-04-23 01:38 | -33.37539 | 115.68266 | 59 ft | 5 kts | 265° |
| 2026-04-23 01:38 | -33.37502 | 115.68609 | 51 ft | 6 kts | 269° |
| 2026-04-23 01:38 | -33.37563 | 115.68333 | 59 ft | 82 kts | 245° |
| 2026-04-23 01:39 | -33.37774 | 115.67814 | 197 ft | 116 kts | 243° |
| 2026-04-23 01:39 | -33.38099 | 115.66943 | 632 ft | 112 kts | 252° |
| 2026-04-23 01:39 | -33.38325 | 115.65953 | 944 ft | 132 kts | 254° |
| 2026-04-23 01:39 | -33.38673 | 115.64538 | 1580 ft | 132 kts | 254° |
| 2026-04-23 01:40 | -33.38931 | 115.63508 | 2143 ft | 126 kts | 254° |
| 2026-04-23 01:40 | -33.39157 | 115.62502 | 2694 ft | 124 kts | 262° |
| 2026-04-23 01:40 | -33.39113 | 115.61824 | 3054 ft | 124 kts | 281° |
| 2026-04-23 01:40 | -33.38624 | 115.60960 | 3612 ft | 132 kts | 310° |
| 2026-04-23 01:41 | -33.37727 | 115.60470 | 3873 ft | 151 kts | 338° |
| 2026-04-23 01:41 | -33.36671 | 115.60587 | 4265 ft | 158 kts | 5° |
| 2026-04-23 01:41 | -33.35717 | 115.61083 | 5009 ft | 145 kts | 16° |
| 2026-04-23 01:41 | -33.34859 | 115.61690 | 5692 ft | 142 kts | 18° |
| 2026-04-23 01:42 | -33.33937 | 115.62322 | 5795 ft | 158 kts | 17° |
| 2026-04-23 01:42 | -33.32851 | 115.63011 | 5574 ft | 197 kts | 17° |
| 2026-04-23 01:42 | -33.31551 | 115.63777 | 5335 ft | 216 kts | 17° |
| 2026-04-23 01:42 | -33.30190 | 115.64556 | 5092 ft | 222 kts | 17° |
| 2026-04-23 01:43 | -33.28804 | 115.65345 | 4843 ft | 215 kts | 17° |
| 2026-04-23 01:43 | -33.27574 | 115.66073 | 4581 ft | 182 kts | 17° |
| 2026-04-23 01:43 | -33.26397 | 115.66780 | 4330 ft | 195 kts | 18° |
| 2026-04-23 01:43 | -33.25141 | 115.67512 | 4087 ft | 204 kts | 18° |
| 2026-04-23 01:44 | -33.23840 | 115.68259 | 3838 ft | 208 kts | 18° |
| 2026-04-23 01:44 | -33.22549 | 115.68996 | 3593 ft | 209 kts | 18° |
| 2026-04-23 01:44 | -33.21239 | 115.69741 | 3341 ft | 208 kts | 19° |
| 2026-04-23 01:44 | -33.19930 | 115.70483 | 3091 ft | 208 kts | 19° |
| 2026-04-23 01:45 | -33.18620 | 115.71224 | 2850 ft | 208 kts | 19° |
| 2026-04-23 01:45 | -33.17312 | 115.71961 | 2643 ft | 206 kts | 19° |
| 2026-04-23 01:45 | -33.16029 | 115.72685 | 2525 ft | 201 kts | 19° |
| 2026-04-23 01:45 | -33.14781 | 115.73391 | 2486 ft | 195 kts | 19° |
| 2026-04-23 01:46 | -33.13574 | 115.74084 | 2483 ft | 191 kts | 19° |
| 2026-04-23 01:46 | -33.12400 | 115.74761 | 2484 ft | 188 kts | 19° |
| 2026-04-23 01:46 | -33.11225 | 115.75440 | 2487 ft | 187 kts | 19° |
| 2026-04-23 01:46 | -33.10053 | 115.76115 | 2487 ft | 187 kts | 19° |
| 2026-04-23 01:47 | -33.08883 | 115.76790 | 2488 ft | 187 kts | 19° |
| 2026-04-23 01:47 | -33.07710 | 115.77465 | 2489 ft | 186 kts | 19° |
| 2026-04-23 01:47 | -33.06540 | 115.78135 | 2487 ft | 187 kts | 19° |
| 2026-04-23 01:47 | -33.05371 | 115.78802 | 2491 ft | 186 kts | 19° |
| 2026-04-23 01:48 | -33.04200 | 115.79471 | 2500 ft | 187 kts | 19° |
| 2026-04-23 01:48 | -33.03030 | 115.80139 | 2498 ft | 190 kts | 19° |
| 2026-04-23 01:48 | -33.01833 | 115.80822 | 2493 ft | 191 kts | 19° |
| 2026-04-23 01:48 | -33.00632 | 115.81508 | 2484 ft | 190 kts | 19° |
| 2026-04-23 01:49 | -32.99442 | 115.82190 | 2492 ft | 189 kts | 19° |
| 2026-04-23 01:49 | -32.98260 | 115.82870 | 2495 ft | 188 kts | 19° |
| 2026-04-23 01:49 | -32.97083 | 115.83546 | 2496 ft | 188 kts | 20° |
| 2026-04-23 01:49 | -32.95906 | 115.84222 | 2497 ft | 188 kts | 20° |
| 2026-04-23 01:50 | -32.94744 | 115.84894 | 2499 ft | 188 kts | 20° |
| 2026-04-23 01:50 | -32.93567 | 115.85576 | 2501 ft | 188 kts | 20° |
| 2026-04-23 01:50 | -32.92390 | 115.86259 | 2500 ft | 188 kts | 20° |
| 2026-04-23 01:50 | -32.91213 | 115.86939 | 2503 ft | 188 kts | 20° |
| 2026-04-23 01:51 | -32.90035 | 115.87619 | 2502 ft | 188 kts | 20° |
| 2026-04-23 01:51 | -32.88856 | 115.88299 | 2503 ft | 188 kts | 20° |
| 2026-04-23 01:51 | -32.87691 | 115.88972 | 2507 ft | 188 kts | 20° |
| 2026-04-23 01:51 | -32.86512 | 115.89655 | 2510 ft | 189 kts | 20° |
| 2026-04-23 01:52 | -32.85327 | 115.90343 | 2510 ft | 189 kts | 20° |
| 2026-04-23 01:52 | -32.84145 | 115.91027 | 2512 ft | 189 kts | 20° |
| 2026-04-23 01:52 | -32.82954 | 115.91702 | 2508 ft | 188 kts | 17° |
| 2026-04-23 01:52 | -32.81710 | 115.91947 | 2508 ft | 176 kts | 349° |
| 2026-04-23 01:53 | -32.80586 | 115.91531 | 2525 ft | 165 kts | 324° |
| 2026-04-23 01:53 | -32.79658 | 115.90760 | 2521 ft | 161 kts | 312° |
| 2026-04-23 01:53 | -32.78861 | 115.89855 | 2519 ft | 160 kts | 306° |
| 2026-04-23 01:53 | -32.78116 | 115.88878 | 2517 ft | 159 kts | 303° |
| 2026-04-23 01:54 | -32.77407 | 115.87877 | 2516 ft | 158 kts | 302° |
| 2026-04-23 01:54 | -32.76714 | 115.86858 | 2513 ft | 158 kts | 301° |
| 2026-04-23 01:54 | -32.76030 | 115.85836 | 2512 ft | 158 kts | 301° |
| 2026-04-23 01:54 | -32.75351 | 115.84814 | 2517 ft | 158 kts | 301° |
| 2026-04-23 01:55 | -32.74672 | 115.83786 | 2511 ft | 158 kts | 301° |
| 2026-04-23 01:55 | -32.73980 | 115.82769 | 2513 ft | 159 kts | 303° |
| 2026-04-23 01:55 | -32.73195 | 115.81829 | 2514 ft | 162 kts | 310° |
| 2026-04-23 01:55 | -32.72270 | 115.81038 | 2520 ft | 166 kts | 320° |
| 2026-04-23 01:56 | -32.71221 | 115.80428 | 2518 ft | 170 kts | 329° |
| 2026-04-23 01:56 | -32.70084 | 115.79994 | 2521 ft | 173 kts | 336° |
| 2026-04-23 01:56 | -32.68891 | 115.79699 | 2519 ft | 176 kts | 341° |
| 2026-04-23 01:56 | -32.67673 | 115.79498 | 2519 ft | 177 kts | 345° |
| 2026-04-23 01:57 | -32.66456 | 115.79345 | 2516 ft | 178 kts | 346° |
| 2026-04-23 01:57 | -32.65217 | 115.79212 | 2518 ft | 178 kts | 346° |
| 2026-04-23 01:57 | -32.63979 | 115.79080 | 2516 ft | 178 kts | 346° |
| 2026-04-23 01:57 | -32.62743 | 115.78944 | 2518 ft | 178 kts | 346° |
| 2026-04-23 01:58 | -32.61507 | 115.78794 | 2519 ft | 178 kts | 346° |
| 2026-04-23 01:58 | -32.60275 | 115.78637 | 2521 ft | 178 kts | 345° |
| 2026-04-23 01:58 | -32.59060 | 115.78471 | 2519 ft | 178 kts | 345° |
| 2026-04-23 01:58 | -32.57833 | 115.78296 | 2520 ft | 178 kts | 345° |
| 2026-04-23 01:59 | -32.56601 | 115.78119 | 2524 ft | 178 kts | 345° |
| 2026-04-23 01:59 | -32.55368 | 115.77940 | 2521 ft | 178 kts | 345° |
| 2026-04-23 01:59 | -32.54133 | 115.77763 | 2523 ft | 178 kts | 345° |
| 2026-04-23 01:59 | -32.52902 | 115.77585 | 2523 ft | 178 kts | 345° |
| 2026-04-23 02:00 | -32.51664 | 115.77407 | 2486 ft | 181 kts | 345° |
| 2026-04-23 02:00 | -32.50394 | 115.77217 | 2333 ft | 186 kts | 345° |
| 2026-04-23 02:00 | -32.49092 | 115.77026 | 2172 ft | 189 kts | 346° |
| 2026-04-23 02:00 | -32.47798 | 115.76841 | 2014 ft | 190 kts | 346° |
| 2026-04-23 02:01 | -32.46487 | 115.76652 | 1853 ft | 189 kts | 346° |
| 2026-04-23 02:01 | -32.45180 | 115.76461 | 1691 ft | 189 kts | 346° |
| 2026-04-23 02:01 | -32.43880 | 115.76275 | 1570 ft | 186 kts | 347° |
| 2026-04-23 02:01 | -32.42608 | 115.76087 | 1529 ft | 181 kts | 347° |
| 2026-04-23 02:02 | -32.41363 | 115.75920 | 1524 ft | 179 kts | 347° |
| 2026-04-23 02:02 | -32.40136 | 115.75751 | 1521 ft | 176 kts | 346° |
| 2026-04-23 02:02 | -32.38936 | 115.75577 | 1524 ft | 175 kts | 346° |
| 2026-04-23 02:02 | -32.37711 | 115.75402 | 1525 ft | 175 kts | 346° |
| 2026-04-23 02:03 | -32.36518 | 115.75228 | 1523 ft | 175 kts | 346° |
| 2026-04-23 02:03 | -32.35306 | 115.75053 | 1523 ft | 175 kts | 346° |
| 2026-04-23 02:03 | -32.34094 | 115.74877 | 1527 ft | 175 kts | 346° |
| 2026-04-23 02:03 | -32.32885 | 115.74701 | 1528 ft | 175 kts | 346° |
| 2026-04-23 02:04 | -32.31674 | 115.74528 | 1527 ft | 175 kts | 346° |
| 2026-04-23 02:04 | -32.30458 | 115.74354 | 1523 ft | 175 kts | 346° |
| 2026-04-23 02:04 | -32.29240 | 115.74218 | 1526 ft | 177 kts | 351° |
| 2026-04-23 02:04 | -32.28015 | 115.74308 | 1532 ft | 179 kts | 0° |
| 2026-04-23 02:05 | -32.26773 | 115.74512 | 1530 ft | 181 kts | 2° |
| 2026-04-23 02:05 | -32.25526 | 115.74749 | 1526 ft | 181 kts | 3° |
| 2026-04-23 02:05 | -32.24275 | 115.74994 | 1527 ft | 181 kts | 3° |
| 2026-04-23 02:05 | -32.23030 | 115.75233 | 1527 ft | 181 kts | 3° |
| 2026-04-23 02:06 | -32.21800 | 115.75464 | 1524 ft | 181 kts | 2° |
| 2026-04-23 02:06 | -32.20529 | 115.75693 | 1373 ft | 187 kts | 2° |
| 2026-04-23 02:06 | -32.19227 | 115.75915 | 1206 ft | 189 kts | 4° |
| 2026-04-23 02:06 | -32.17928 | 115.76143 | 1080 ft | 188 kts | 4° |
| 2026-04-23 02:07 | -32.16682 | 115.76370 | 1033 ft | 184 kts | 5° |
| 2026-04-23 02:07 | -32.15463 | 115.76822 | 1023 ft | 184 kts | 20° |
| 2026-04-23 02:07 | -32.14432 | 115.77714 | 1021 ft | 185 kts | 45° |
| 2026-04-23 02:07 | -32.13706 | 115.78969 | 1037 ft | 185 kts | 59° |
| 2026-04-23 02:08 | -32.13111 | 115.80304 | 1031 ft | 186 kts | 63° |
| 2026-04-23 02:08 | -32.12463 | 115.81622 | 1028 ft | 186 kts | 54° |
| 2026-04-23 02:08 | -32.11690 | 115.82852 | 931 ft | 185 kts | 49° |
| 2026-04-23 02:08 | -32.10891 | 115.83991 | 837 ft | 172 kts | 49° |
| 2026-04-23 02:09 | -32.10147 | 115.85060 | 701 ft | 166 kts | 48° |
| 2026-04-23 02:09 | -32.09373 | 115.85961 | 671 ft | 127 kts | 39° |
| 2026-04-23 02:09 | -32.08814 | 115.86534 | 662 ft | 106 kts | 34° |
| 2026-04-23 02:09 | -32.08228 | 115.87060 | 711 ft | 105 kts | 30° |
| 2026-04-23 02:10 | -32.07626 | 115.87547 | 787 ft | 107 kts | 27° |
| 2026-04-23 02:10 | -32.06997 | 115.88027 | 763 ft | 108 kts | 27° |
| 2026-04-23 02:10 | -32.06655 | 115.88767 | 686 ft | 106 kts | 104° |
| 2026-04-23 02:10 | -32.07108 | 115.89307 | 620 ft | 90 kts | 184° |
| 2026-04-23 02:11 | -32.07656 | 115.89185 | 529 ft | 83 kts | 196° |
| 2026-04-23 02:11 | -32.08277 | 115.89219 | 426 ft | 87 kts | 184° |
| 2026-04-23 02:11 | -32.08831 | 115.89206 | 285 ft | 74 kts | 205° |
| 2026-04-23 02:11 | -32.09201 | 115.88799 | 207 ft | 74 kts | 240° |
| 2026-04-23 02:12 | -32.09463 | 115.88339 | 109 ft | 56 kts | 238° |
| 2026-04-23 02:12 | -32.09650 | 115.88019 | 105 ft | 33 kts | 237° |
| 2026-04-23 02:12 | -32.09782 | 115.87800 | 105 ft | 34 kts | 234° |
| 2026-04-23 02:12 | -32.09832 | 115.87608 | 105 ft | 14 kts | 337° |
| 2026-04-23 02:13 | -32.09819 | 115.87603 | 105 ft | 0 kts | 344° |